Yorkville, NY (13495)

2:07 PM EDT on October 20, 2014 (GMT -0400)
Harts Hill | Change Station
CLOSE
Current Station
Personal Weather Station
Location: Whitesboro, NY
Elevation: 682 ft
Nearby Weather Stations

Elev 682 ft 43.11 °N, 75.32 °W | Updated 1 minute ago

Overcast
Overcast
52.5 °F
Feels Like 52.5 °F
N
0.9
Wind Variable Wind from ESE
Gusts 3.0 mph

Today
High -- | Low -- °F
--% Chance of Precip.
Yesterday
High -- | Low -- °F
Precip. -- in
7:20 AM 6:10 PM
Waning Crescent, 10% visible
Pressure 29.93 in
Visibility 10.0 miles
Clouds Overcast 7500 ft
Dew Point 37 °F
Humidity 56%
Rainfall 0.00 in
Snow Depth Not available.
UV 1 out of 12
Pollen .30 out of 12
Ozone Good
PM2.5 Good
Flu Activity Sporadic
METAR KRME 201753Z 21010KT 10SM OVC075 12/03 A2992 RMK AO2 SLP134 T01170028 10128 20022 56029

More Conditions Fewer Conditions

Pressure 29.93 in
Visibility 10.0 miles
Clouds Overcast 7500 ft
Dew Point 37 °F
Humidity 56%
Rainfall 0.00 in
Snow Depth Not available.
UV 1 out of 12
Pollen .30 out of 12
Ozone Good
PM2.5 Good
Flu Activity Sporadic
METAR KRME 201753Z 21010KT 10SM OVC075 12/03 A2992 RMK AO2 SLP134 T01170028 10128 20022 56029

More Conditions Fewer Conditions

10-Day Weather Forecast

Almanac

Astronomy

Oct. 20, 2014 Rise Set
Actual Time 7:20 AM EDT 6:10 PM EDT
Civil Twilight 6:51 AM EDT 6:39 PM EDT
Nautical Twilight 6:18 AM EDT 7:12 PM EDT
Astronomical Twilight 5:45 AM EDT 7:45 PM EDT
Moon 4:01 AM EDT 4:36 PM EDT
Length of Visible Light 11h 47m
Length of Day
10h 49m
Waning Crescent, 10% of the Moon is Illuminated
Today
Waning Crescent
Oct 23
New
Oct 30
First Quarter
Nov 6
Full
Nov 14
Last Quarter

Today's Extremes

State Highs State Lows

Community

WunderPhotos

Upload Photos

1,763,455 photos uploaded!

Nearby

Air Quality

  Air Quality AQ Index Pollutant
Yesterday Good
OZONE
Yesterday Good
PM2.5
Current Good
PM2.5
Current Good
OZONE
Monday Good
PM2.5
Tuesday Good
PM2.5

Snow Depth

Station Depth Elevation
No new snow has been reported.

Earthquake Activity

City Distance Mag. Time & Date
No recent earthquake activity has been reported nearby.
Minimum magnitude displayed is 2.5.

Coastal Water Temperatures

Place Temperature
No Stations Reporting

Nearby Weather Stations